createdAt,value
2022-11-28T00:01:24.269Z,7.22
2022-11-28T00:03:51.366Z,6.22
2022-11-28T00:06:18.200Z,7.82
2022-11-28T00:08:45.212Z,8.00
2022-11-28T00:11:15.407Z,8.43
2022-11-28T00:13:42.352Z,5.70
2022-11-28T00:16:13.071Z,7.40
2022-11-28T00:18:39.529Z,5.90
2022-11-28T00:21:08.748Z,5.13
2022-11-28T00:23:35.680Z,5.25
2022-11-28T00:26:05.385Z,7.32
2022-11-28T00:28:32.434Z,5.78
2022-11-28T00:30:58.868Z,5.43
2022-11-28T00:33:25.344Z,7.60
2022-11-28T00:35:51.731Z,6.95
2022-11-28T00:38:18.276Z,8.93
2022-11-28T00:40:44.724Z,8.10
2022-11-28T00:43:12.782Z,6.30
2022-11-28T00:45:39.210Z,6.43
2022-11-28T00:48:05.815Z,7.35
2022-11-28T00:52:58.715Z,6.45
2022-11-28T00:55:25.141Z,7.13
2022-11-28T00:57:51.551Z,6.22
2022-11-28T01:00:18.326Z,5.70
2022-11-28T01:02:44.799Z,5.32
2022-11-28T01:05:11.395Z,5.25
2022-11-28T01:10:11.528Z,5.57
2022-11-28T01:12:38.214Z,7.13
2022-11-28T01:17:32.651Z,5.20
2022-11-28T01:19:59.068Z,9.48
2022-11-28T01:22:25.511Z,6.53
2022-11-28T01:24:51.987Z,6.15
2022-11-28T01:27:18.373Z,4.90
2022-11-28T01:29:44.815Z,7.75
2022-11-28T01:32:11.354Z,4.55
2022-11-28T01:34:37.831Z,5.50
2022-11-28T01:37:04.296Z,7.35
2022-11-28T01:39:31.031Z,5.47
2022-11-28T01:41:57.459Z,5.10
2022-11-28T01:44:23.846Z,5.57
2022-11-28T01:46:50.431Z,5.38
2022-11-28T01:52:01.150Z,6.53
2022-11-28T01:54:29.642Z,9.55
2022-11-28T01:57:03.029Z,5.63
2022-11-28T01:59:35.390Z,6.20
2022-11-28T02:02:07.311Z,5.35
2022-11-28T02:04:34.317Z,6.50
2022-11-28T02:07:00.943Z,5.82
2022-11-28T02:12:19.719Z,5.00
2022-11-28T02:15:04.443Z,6.70
2022-11-28T02:17:47.960Z,5.40
2022-11-28T02:21:02.827Z,6.43
2022-11-28T02:23:50.650Z,7.20
2022-11-28T02:29:07.719Z,7.38
2022-11-28T02:31:55.168Z,7.40
2022-11-28T02:34:47.145Z,7.28
2022-11-28T02:37:34.330Z,5.93
2022-11-28T02:40:15.282Z,6.27
2022-11-28T02:43:22.119Z,5.45
2022-11-28T02:46:12.868Z,6.18
2022-11-28T02:48:59.995Z,5.47
2022-11-28T02:51:39.088Z,8.30
2022-11-28T02:54:09.319Z,6.18
2022-11-28T02:56:36.009Z,5.70
2022-11-28T03:01:38.527Z,6.88
2022-11-28T03:04:24.135Z,7.95
2022-11-28T03:07:07.301Z,6.60
2022-11-28T03:10:00.906Z,7.03
2022-11-28T03:12:49.187Z,5.57
2022-11-28T03:15:19.942Z,6.85
2022-11-28T03:18:20.311Z,7.15
2022-11-28T03:20:53.092Z,6.40
2022-11-28T03:23:37.295Z,5.30
2022-11-28T03:26:36.516Z,6.07
2022-11-28T03:29:18.724Z,6.82
2022-11-28T03:31:52.124Z,5.38
2022-11-28T03:34:23.479Z,9.02
2022-11-28T03:37:01.038Z,7.80
2022-11-28T03:39:42.190Z,7.63
2022-11-28T03:42:19.333Z,5.78
2022-11-28T03:47:15.293Z,6.88
2022-11-28T03:49:50.907Z,6.63
2022-11-28T03:52:31.411Z,6.35
2022-11-28T03:55:05.811Z,8.45
2022-11-28T03:58:09.835Z,6.97
2022-11-28T04:00:48.308Z,6.78
2022-11-28T04:03:21.152Z,7.05
2022-11-28T04:05:53.029Z,7.75
2022-11-28T04:08:31.892Z,7.00
2022-11-28T04:11:07.635Z,7.03
2022-11-28T04:13:41.906Z,7.20
2022-11-28T04:16:37.849Z,8.13
2022-11-28T04:19:18.739Z,7.95
2022-11-28T04:21:57.239Z,6.47
2022-11-28T04:24:28.832Z,6.70
2022-11-28T04:27:01.113Z,7.00
2022-11-28T04:29:31.334Z,7.20
2022-11-28T04:31:59.594Z,7.45
2022-11-28T04:34:28.363Z,6.57
2022-11-28T04:36:58.681Z,8.05
2022-11-28T04:39:27.586Z,8.88
2022-11-28T04:42:07.888Z,8.68
2022-11-28T04:44:54.677Z,8.50
2022-11-28T04:47:22.313Z,9.75
2022-11-28T04:49:49.260Z,6.93
2022-11-28T04:52:27.062Z,8.27
2022-11-28T04:55:17.206Z,6.97
2022-11-28T04:57:57.294Z,8.90
2022-11-28T05:00:26.264Z,7.90
2022-11-28T05:02:54.381Z,8.80
2022-11-28T05:05:25.067Z,7.63
2022-11-28T05:07:52.903Z,10.13
2022-11-28T05:10:20.047Z,11.48
2022-11-28T05:12:46.531Z,9.68
2022-11-28T05:15:13.018Z,13.30
2022-11-28T05:20:09.916Z,15.13
2022-11-28T05:22:36.313Z,21.83
2022-11-28T05:25:02.697Z,12.50
2022-11-28T05:27:29.201Z,10.30
2022-11-28T05:29:55.606Z,7.68
2022-11-28T05:32:22.116Z,8.35
2022-11-28T05:37:16.207Z,9.57
2022-11-28T05:39:43.146Z,12.32
2022-11-28T05:42:09.680Z,11.63
2022-11-28T05:44:36.897Z,13.18
2022-11-28T05:47:03.352Z,10.23
2022-11-28T05:49:29.808Z,8.10
2022-11-28T05:51:59.109Z,10.00
2022-11-28T05:54:25.642Z,9.18
2022-11-28T05:56:52.257Z,10.23
2022-11-28T06:01:45.126Z,7.80
2022-11-28T06:04:11.568Z,9.85
2022-11-28T06:06:39.222Z,8.55
2022-11-28T06:09:06.220Z,12.10
2022-11-28T06:11:36.229Z,13.60
2022-11-28T06:14:03.255Z,11.48
2022-11-28T06:16:31.507Z,9.85
2022-11-28T06:19:00.660Z,9.90
2022-11-28T06:21:28.850Z,8.57
2022-11-28T06:23:56.917Z,7.78
2022-11-28T06:26:24.929Z,9.68
2022-11-28T06:28:51.782Z,9.60
2022-11-28T06:31:24.011Z,9.65
2022-11-28T06:33:51.331Z,17.73
2022-11-28T06:36:19.832Z,23.73
2022-11-28T06:38:47.015Z,21.60
2022-11-28T06:41:17.317Z,20.73
2022-11-28T06:43:43.801Z,24.35
2022-11-28T06:46:19.450Z,16.90
2022-11-28T06:48:47.015Z,19.98
2022-11-28T06:51:14.233Z,23.77
2022-11-28T06:53:41.065Z,19.88
2022-11-28T06:56:09.622Z,15.30
2022-11-28T06:58:37.215Z,12.77
2022-11-28T07:01:15.606Z,15.27
2022-11-28T07:03:43.676Z,12.25
2022-11-28T07:06:11.166Z,12.40
2022-11-28T07:08:39.180Z,11.05
2022-11-28T07:11:20.870Z,12.77
2022-11-28T07:13:48.281Z,13.10
2022-11-28T07:16:18.329Z,14.40
2022-11-28T07:18:45.463Z,20.77
2022-11-28T07:21:14.521Z,18.98
2022-11-28T07:23:41.821Z,20.88
2022-11-28T07:26:08.332Z,19.88
2022-11-28T07:31:04.876Z,17.20
2022-11-28T07:33:31.723Z,17.40
2022-11-28T07:36:06.345Z,18.83
2022-11-28T07:38:33.176Z,25.38
2022-11-28T07:41:07.635Z,22.05
2022-11-28T07:43:34.245Z,17.17
2022-11-28T07:48:30.081Z,13.65
2022-11-28T07:50:56.451Z,14.10
2022-11-28T07:53:22.908Z,13.25
2022-11-28T07:55:49.343Z,15.57
2022-11-28T07:58:15.763Z,14.55
2022-11-28T08:00:42.198Z,15.77
2022-11-28T08:05:35.186Z,12.07
2022-11-28T08:08:01.629Z,13.40
2022-11-28T08:10:28.058Z,12.13
2022-11-28T08:12:54.520Z,12.50
2022-11-28T08:15:20.916Z,15.07
2022-11-28T08:17:47.339Z,11.23
2022-11-28T08:20:13.831Z,11.65
2022-11-28T08:22:40.573Z,14.40
2022-11-28T08:25:07.251Z,11.55
2022-11-28T08:27:33.868Z,12.73
2022-11-28T08:30:00.542Z,13.57
2022-11-28T08:32:30.354Z,10.25
2022-11-28T08:34:56.762Z,11.98
2022-11-28T08:37:23.152Z,11.93
2022-11-28T08:39:49.579Z,11.15
2022-11-28T08:42:15.978Z,14.60
2022-11-28T08:44:42.374Z,11.20
2022-11-28T08:47:08.788Z,14.32
2022-11-28T08:49:37.024Z,12.90
2022-11-28T08:52:04.423Z,11.60
2022-11-28T08:54:30.924Z,12.30
2022-11-28T08:56:58.827Z,13.50
2022-11-28T08:59:25.353Z,12.50
2022-11-28T09:01:55.347Z,14.13
2022-11-28T09:04:23.624Z,14.43
2022-11-28T09:06:50.637Z,19.45
2022-11-28T09:09:17.267Z,13.55
2022-11-28T09:14:10.145Z,19.77
2022-11-28T09:16:38.970Z,14.57
2022-11-28T09:19:06.902Z,17.77
2022-11-28T09:21:33.268Z,21.17
2022-11-28T09:23:59.712Z,19.25
2022-11-28T09:26:26.241Z,8.15
2022-11-28T09:28:54.205Z,15.48
2022-11-28T09:31:21.413Z,3.78
2022-11-28T09:33:49.324Z,5.30
2022-11-28T09:36:21.105Z,4.55
2022-11-28T09:38:48.359Z,2.70
2022-11-28T09:41:28.158Z,1.65
2022-11-28T09:44:00.720Z,3.58
2022-11-28T09:46:31.557Z,3.40
2022-11-28T09:49:02.866Z,5.20
2022-11-28T09:51:45.552Z,4.25
2022-11-28T09:54:38.188Z,4.82
2022-11-28T09:57:12.407Z,2.25
2022-11-28T09:59:38.901Z,8.73
2022-11-28T10:02:26.567Z,4.80
2022-11-28T10:07:55.276Z,5.30
2022-11-28T10:10:34.035Z,3.90
2022-11-28T10:13:10.464Z,4.53
2022-11-28T10:15:48.180Z,6.93
2022-11-28T10:18:34.215Z,2.55
2022-11-28T10:21:21.459Z,4.60
2022-11-28T10:23:50.219Z,4.18
2022-11-28T10:26:36.114Z,3.78
2022-11-28T10:29:11.689Z,3.05
2022-11-28T10:31:44.362Z,3.05
2022-11-28T10:34:23.533Z,5.78
2022-11-28T10:37:06.813Z,4.45
2022-11-28T10:39:37.435Z,7.28
2022-11-28T10:42:20.004Z,4.43
2022-11-28T10:45:18.000Z,2.95
2022-11-28T10:48:07.549Z,2.08
2022-11-28T10:50:57.184Z,5.35
2022-11-28T10:53:48.983Z,3.05
2022-11-28T10:56:43.107Z,4.80
2022-11-28T10:59:48.385Z,4.22
2022-11-28T11:02:31.683Z,5.30
2022-11-28T11:04:58.233Z,6.10
2022-11-28T11:10:02.767Z,3.90
2022-11-28T11:12:33.548Z,4.25
2022-11-28T11:15:15.787Z,6.20
2022-11-28T11:17:43.219Z,4.63
2022-11-28T11:20:31.073Z,5.60
2022-11-28T11:23:00.087Z,4.38
2022-11-28T11:25:29.323Z,8.88
2022-11-28T11:27:57.164Z,5.55
2022-11-28T11:30:28.563Z,12.52
2022-11-28T11:32:57.253Z,14.98
2022-11-28T11:35:27.717Z,14.40
2022-11-28T11:38:14.058Z,12.55
2022-11-28T11:40:40.446Z,11.38
2022-11-28T11:43:25.992Z,16.50
2022-11-28T11:46:06.413Z,10.82
2022-11-28T11:48:42.440Z,10.23
2022-11-28T11:51:22.820Z,10.13
2022-11-28T11:54:04.468Z,9.35
2022-11-28T11:56:39.013Z,10.73
2022-11-28T11:59:44.885Z,9.55
2022-11-28T12:02:38.044Z,10.13
2022-11-28T12:05:17.126Z,9.80
2022-11-28T12:08:01.051Z,11.05
2022-11-28T12:10:33.967Z,12.43
2022-11-28T12:13:02.490Z,15.05
2022-11-28T12:15:46.216Z,13.80
2022-11-28T12:18:18.074Z,12.30
2022-11-28T12:21:09.101Z,13.40
2022-11-28T12:24:00.612Z,14.77
2022-11-28T12:26:44.557Z,17.98
2022-11-28T12:29:32.646Z,14.43
2022-11-28T12:32:45.039Z,26.05
2022-11-28T12:35:22.626Z,39.33
2022-11-28T12:38:11.445Z,45.47
2022-11-28T12:40:41.118Z,24.90
2022-11-28T12:43:19.673Z,26.83
2022-11-28T12:46:19.296Z,21.48
2022-11-28T12:48:54.656Z,16.42
2022-11-28T12:51:53.095Z,16.50
2022-11-28T12:54:30.895Z,18.40
2022-11-28T12:57:41.316Z,21.55
2022-11-28T13:00:25.051Z,25.77
2022-11-28T13:03:09.156Z,29.73
2022-11-28T13:05:44.647Z,18.92
2022-11-28T13:08:20.293Z,16.08
2022-11-28T13:11:08.769Z,12.57
2022-11-28T13:13:46.540Z,13.40
2022-11-28T13:16:35.862Z,9.15
2022-11-28T13:19:15.947Z,13.07
2022-11-28T13:21:53.463Z,12.07
2022-11-28T13:24:31.834Z,13.38
2022-11-28T13:27:05.726Z,10.63
2022-11-28T13:30:03.458Z,12.93
2022-11-28T13:32:43.704Z,12.75
2022-11-28T13:35:16.022Z,15.20
2022-11-28T13:40:43.720Z,14.77
2022-11-28T13:43:22.831Z,13.60
2022-11-28T13:45:50.064Z,10.35
2022-11-28T13:49:14.008Z,12.27
2022-11-28T13:51:30.849Z,16.92
2022-11-28T13:54:18.203Z,16.33
2022-11-28T13:57:12.578Z,13.80
2022-11-28T13:59:39.543Z,22.35
2022-11-28T14:02:22.002Z,16.17
2022-11-28T14:05:26.370Z,14.52
2022-11-28T14:07:56.732Z,14.50
2022-11-28T14:10:51.429Z,14.13
2022-11-28T14:13:58.344Z,15.27
2022-11-28T14:16:43.234Z,19.38
2022-11-28T14:19:55.024Z,17.20
2022-11-28T14:22:44.931Z,18.27
2022-11-28T14:25:22.093Z,18.50
2022-11-28T14:27:54.795Z,19.00
2022-11-28T14:30:32.002Z,17.58
2022-11-28T14:33:02.662Z,17.70
2022-11-28T14:35:50.794Z,17.58
2022-11-28T14:38:29.940Z,12.52
2022-11-28T14:41:06.722Z,14.88
2022-11-28T14:43:45.843Z,15.70
2022-11-28T14:46:23.213Z,16.52
2022-11-28T14:48:58.887Z,18.60
2022-11-28T14:51:44.070Z,18.38
2022-11-28T14:54:33.613Z,18.77
2022-11-28T14:57:00.400Z,15.02
2022-11-28T14:59:30.803Z,15.43
2022-11-28T15:02:12.601Z,10.63
2022-11-28T15:04:51.409Z,15.10
2022-11-28T15:07:22.436Z,18.58
2022-11-28T15:10:16.055Z,10.20
2022-11-28T15:13:05.012Z,13.02
2022-11-28T15:15:32.569Z,10.25
2022-11-28T15:18:02.160Z,13.13
2022-11-28T15:20:38.743Z,10.40
2022-11-28T15:23:05.536Z,10.88
2022-11-28T15:28:14.651Z,7.13
2022-11-28T15:30:46.639Z,4.90
2022-11-28T15:33:13.435Z,10.98
2022-11-28T15:36:10.453Z,7.22
2022-11-28T15:38:38.163Z,9.90
2022-11-28T15:41:05.485Z,13.30
2022-11-28T15:43:32.652Z,10.88
2022-11-28T15:46:01.108Z,13.50
2022-11-28T15:48:46.841Z,12.50
2022-11-28T15:51:35.622Z,11.93
2022-11-28T15:54:42.112Z,16.17
2022-11-28T15:57:38.348Z,11.15
2022-11-28T16:00:05.928Z,17.00
2022-11-28T16:02:41.771Z,15.80
2022-11-28T16:05:20.773Z,10.35
2022-11-28T16:07:49.993Z,5.82
2022-11-28T16:10:34.023Z,6.72
2022-11-28T16:13:13.859Z,6.68
2022-11-28T16:15:50.306Z,7.53
2022-11-28T16:18:17.485Z,5.82
2022-11-28T16:20:44.726Z,6.75
2022-11-28T16:23:19.449Z,5.00
2022-11-28T16:25:57.902Z,4.72
2022-11-28T16:28:40.617Z,4.05
2022-11-28T16:31:12.323Z,6.72
2022-11-28T16:33:44.779Z,4.03
2022-11-28T16:36:25.175Z,3.17
2022-11-28T16:39:12.699Z,3.58
2022-11-28T16:41:42.792Z,2.80
2022-11-28T16:44:15.986Z,2.05
2022-11-28T16:46:52.112Z,1.63
2022-11-28T16:49:44.616Z,2.67
2022-11-28T16:52:27.275Z,4.43
2022-11-28T16:54:58.424Z,22.48
2022-11-28T16:57:30.240Z,34.72
2022-11-28T16:59:59.581Z,60.53
2022-11-28T17:04:55.723Z,8.25
2022-11-28T17:07:24.159Z,22.13
2022-11-28T17:09:51.001Z,33.70
2022-11-28T17:12:28.242Z,12.95
2022-11-28T17:14:55.841Z,11.15
2022-11-28T17:17:23.420Z,8.23
2022-11-28T17:19:50.815Z,5.80
2022-11-28T17:22:21.026Z,4.00
2022-11-28T17:24:49.371Z,1.65
2022-11-28T17:27:16.482Z,1.15
2022-11-28T17:29:43.421Z,1.90
2022-11-28T17:32:13.343Z,3.17
2022-11-28T17:34:45.958Z,3.00
2022-11-28T17:37:12.683Z,1.90
2022-11-28T17:42:06.213Z,2.20
2022-11-28T17:44:36.299Z,1.52
2022-11-28T17:47:03.891Z,6.18
2022-11-28T17:49:33.816Z,5.93
2022-11-28T17:52:00.290Z,21.95
2022-11-28T17:54:27.244Z,12.48
2022-11-28T17:56:54.667Z,9.52
2022-11-28T17:59:23.092Z,5.57
2022-11-28T18:01:49.707Z,7.82
2022-11-28T18:04:22.759Z,6.93
2022-11-28T18:06:49.819Z,4.95
2022-11-28T18:09:16.303Z,6.18
2022-11-28T18:11:46.288Z,2.55
2022-11-28T18:14:13.135Z,2.20
2022-11-28T18:16:42.795Z,3.83
2022-11-28T18:19:09.448Z,1.17
2022-11-28T18:24:02.546Z,0.52
2022-11-28T18:26:29.625Z,1.00
2022-11-28T18:28:58.081Z,2.30
2022-11-28T18:33:57.511Z,6.15
2022-11-28T18:36:29.925Z,6.47
2022-11-28T18:39:08.944Z,1.42
2022-11-28T18:41:35.915Z,5.00
2022-11-28T18:44:05.034Z,7.30
2022-11-28T18:46:34.277Z,2.97
2022-11-28T18:49:00.877Z,5.38
2022-11-28T18:51:30.367Z,4.93
2022-11-28T18:53:57.789Z,4.28
2022-11-28T18:56:26.487Z,3.13
2022-11-28T18:58:54.131Z,3.45
2022-11-28T19:01:32.056Z,5.47
2022-11-28T19:04:05.525Z,3.60
2022-11-28T19:06:35.133Z,2.55
2022-11-28T19:09:06.025Z,2.30
2022-11-28T19:11:33.761Z,1.92
2022-11-28T19:14:01.803Z,3.08
2022-11-28T19:16:33.446Z,3.00
2022-11-28T19:19:01.607Z,2.75
2022-11-28T19:21:32.602Z,2.90
2022-11-28T19:24:02.444Z,3.50
2022-11-28T19:26:31.101Z,3.03
2022-11-28T19:29:02.645Z,2.58
2022-11-28T19:31:32.645Z,3.88
2022-11-28T19:34:02.103Z,3.67
2022-11-28T19:36:32.899Z,4.30
2022-11-28T19:39:00.198Z,5.28
2022-11-28T19:41:28.039Z,6.00
2022-11-28T19:43:54.826Z,4.40
2022-11-28T19:46:21.339Z,8.55
2022-11-28T19:48:49.662Z,3.78
2022-11-28T19:51:18.425Z,3.58
2022-11-28T19:53:45.144Z,4.03
2022-11-28T19:56:19.143Z,4.32
2022-11-28T19:58:46.564Z,5.10
2022-11-28T20:01:18.548Z,4.15
2022-11-28T20:03:49.817Z,2.90
2022-11-28T20:06:28.324Z,4.00
2022-11-28T20:08:57.692Z,2.90
2022-11-28T20:11:29.705Z,3.50
2022-11-28T20:14:02.100Z,6.93
2022-11-28T20:16:31.037Z,3.85
2022-11-28T20:19:00.450Z,6.53
2022-11-28T20:21:28.782Z,7.80
2022-11-28T20:23:58.165Z,5.22
2022-11-28T20:26:26.736Z,6.03
2022-11-28T20:28:56.056Z,7.30
2022-11-28T20:31:30.738Z,7.18
2022-11-28T20:33:58.604Z,5.93
2022-11-28T20:36:28.255Z,3.92
2022-11-28T20:38:56.121Z,5.40
2022-11-28T20:41:24.520Z,5.20
2022-11-28T20:43:51.627Z,7.60
2022-11-28T20:46:32.319Z,4.72
2022-11-28T20:49:04.468Z,6.25
2022-11-28T20:51:33.197Z,4.57
2022-11-28T20:54:00.546Z,4.40
2022-11-28T20:56:30.191Z,3.95
2022-11-28T20:59:01.857Z,4.15
2022-11-28T21:01:33.229Z,5.80
2022-11-28T21:04:01.358Z,5.50
2022-11-28T21:06:27.843Z,4.13
2022-11-28T21:11:50.227Z,4.10
2022-11-28T21:14:09.580Z,5.13
2022-11-28T21:16:36.353Z,6.10
2022-11-28T21:19:07.367Z,5.20
2022-11-28T21:21:35.549Z,4.80
2022-11-28T21:24:05.002Z,7.50
2022-11-28T21:26:37.646Z,5.78
2022-11-28T21:29:08.994Z,6.82
2022-11-28T21:31:39.432Z,4.47
2022-11-28T21:34:05.959Z,4.93
2022-11-28T21:36:32.547Z,3.80
2022-11-28T21:41:30.022Z,5.55
2022-11-28T21:43:58.227Z,3.47
2022-11-28T21:46:25.424Z,3.17
2022-11-28T21:48:53.385Z,3.33
2022-11-28T21:51:24.948Z,4.75
2022-11-28T21:53:52.216Z,4.55
2022-11-28T21:56:19.765Z,4.90
2022-11-28T22:01:14.838Z,7.18
2022-11-28T22:03:43.721Z,8.32
2022-11-28T22:06:16.700Z,6.50
2022-11-28T22:08:44.384Z,9.68
2022-11-28T22:11:13.176Z,7.85
2022-11-28T22:13:42.245Z,8.30
2022-11-28T22:16:13.359Z,8.10
2022-11-28T22:18:40.022Z,8.55
2022-11-28T22:21:28.719Z,5.43
2022-11-28T22:23:57.675Z,6.82
2022-11-28T22:26:24.190Z,7.93
2022-11-28T22:28:53.740Z,5.65
2022-11-28T22:31:22.577Z,5.47
2022-11-28T22:33:50.300Z,6.32
2022-11-28T22:36:19.542Z,5.82
2022-11-28T22:38:48.367Z,7.35
2022-11-28T22:41:27.901Z,8.43
2022-11-28T22:43:59.317Z,5.93
2022-11-28T22:46:26.433Z,7.85
2022-11-28T22:48:52.860Z,8.10
2022-11-28T22:51:22.367Z,9.73
2022-11-28T22:53:55.927Z,8.35
2022-11-28T22:56:25.077Z,9.48
2022-11-28T22:58:51.853Z,6.70
2022-11-28T23:01:27.459Z,8.05
2022-11-28T23:03:55.874Z,7.03
2022-11-28T23:06:26.157Z,8.27
2022-11-28T23:08:56.982Z,6.78
2022-11-28T23:11:29.245Z,6.03
2022-11-28T23:13:56.881Z,6.88
2022-11-28T23:16:32.619Z,8.00
2022-11-28T23:19:01.808Z,7.05
2022-11-28T23:21:31.549Z,8.30
2022-11-28T23:23:58.290Z,7.75
2022-11-28T23:26:28.471Z,5.88
2022-11-28T23:28:55.875Z,8.57
2022-11-28T23:31:25.444Z,6.28
2022-11-28T23:33:53.795Z,6.63
2022-11-28T23:36:24.595Z,7.85
2022-11-28T23:38:53.616Z,6.38
2022-11-28T23:41:20.384Z,7.22
2022-11-28T23:43:47.096Z,9.18
2022-11-28T23:46:15.398Z,5.20
2022-11-28T23:48:45.110Z,5.97
2022-11-28T23:51:13.786Z,6.47
2022-11-28T23:53:41.660Z,7.50
2022-11-28T23:56:14.278Z,9.82
2022-11-28T23:58:41.511Z,5.82
